createdAt,value
2017-08-06T00:00:29.230Z,0
2017-08-06T00:01:29.220Z,0
2017-08-06T00:02:28.891Z,0
2017-08-06T00:03:29.164Z,0
2017-08-06T00:04:29.150Z,0
2017-08-06T00:05:29.129Z,0
2017-08-06T00:06:29.105Z,0
2017-08-06T00:07:29.086Z,0
2017-08-06T00:08:29.009Z,0
2017-08-06T00:09:28.747Z,0
2017-08-06T00:10:29.015Z,0
2017-08-06T00:11:28.997Z,0
2017-08-06T00:12:28.672Z,0
2017-08-06T00:13:28.962Z,0
2017-08-06T00:14:28.934Z,0
2017-08-06T00:15:28.908Z,0
2017-08-06T00:16:28.887Z,0
2017-08-06T00:17:28.926Z,0
2017-08-06T00:18:28.834Z,0
2017-08-06T00:19:28.831Z,0
2017-08-06T00:20:28.813Z,0
2017-08-06T00:21:28.529Z,0
2017-08-06T00:22:28.762Z,0
2017-08-06T00:23:28.748Z,0
2017-08-06T00:24:28.721Z,0
2017-08-06T00:25:28.694Z,0
2017-08-06T00:26:28.377Z,0
2017-08-06T00:27:28.661Z,0
2017-08-06T00:28:28.637Z,0
2017-08-06T00:29:28.613Z,0
2017-08-06T00:30:28.586Z,0
2017-08-06T00:31:28.576Z,0
2017-08-06T00:32:28.545Z,0
2017-08-06T00:33:28.217Z,0
2017-08-06T00:34:28.501Z,0
2017-08-06T00:35:28.195Z,0
2017-08-06T00:36:28.456Z,0
2017-08-06T00:37:28.155Z,0
2017-08-06T00:38:28.415Z,0
2017-08-06T00:39:28.091Z,0
2017-08-06T00:40:28.400Z,0
2017-08-06T00:41:28.058Z,0
2017-08-06T00:42:28.335Z,0
2017-08-06T00:43:28.028Z,0
2017-08-06T00:44:28.297Z,0
2017-08-06T00:45:28.473Z,0
2017-08-06T00:46:28.240Z,0
2017-08-06T00:47:28.217Z,0
2017-08-06T00:48:28.212Z,0
2017-08-06T00:49:42.839Z,0
2017-08-06T00:50:28.161Z,0
2017-08-06T00:51:28.154Z,0
2017-08-06T00:52:28.129Z,0
2017-08-06T00:53:28.108Z,0
2017-08-06T00:54:28.070Z,0
2017-08-06T00:55:28.048Z,0
2017-08-06T00:56:28.074Z,0
2017-08-06T00:57:28.225Z,0
2017-08-06T00:58:27.980Z,0
2017-08-06T00:59:27.959Z,0
2017-08-06T01:00:27.936Z,0
2017-08-06T01:01:27.918Z,0
2017-08-06T01:02:27.896Z,0
2017-08-06T01:03:27.877Z,0
2017-08-06T01:04:27.854Z,0
2017-08-06T01:05:27.837Z,0
2017-08-06T01:06:27.806Z,0
2017-08-06T01:07:27.793Z,0
2017-08-06T01:08:27.463Z,0
2017-08-06T01:09:27.740Z,0
2017-08-06T01:10:27.721Z,0
2017-08-06T01:11:27.700Z,0
2017-08-06T01:12:27.380Z,0
2017-08-06T01:13:27.664Z,0
2017-08-06T01:14:27.652Z,0
2017-08-06T01:15:27.613Z,0
2017-08-06T01:16:27.593Z,0
2017-08-06T01:17:27.601Z,0
2017-08-06T01:18:27.551Z,0
2017-08-06T01:19:27.528Z,0
2017-08-06T01:20:27.499Z,0
2017-08-06T01:21:27.496Z,0
2017-08-06T01:22:27.169Z,0
2017-08-06T01:23:27.449Z,0
2017-08-06T01:24:27.412Z,0
2017-08-06T01:25:27.402Z,0
2017-08-06T01:26:27.067Z,0
2017-08-06T01:27:27.352Z,0
2017-08-06T01:28:27.331Z,0
2017-08-06T01:29:27.314Z,0
2017-08-06T01:30:27.294Z,0
2017-08-06T01:31:27.259Z,0
2017-08-06T01:32:27.256Z,0
2017-08-06T01:33:27.227Z,0
2017-08-06T01:34:27.194Z,0
2017-08-06T01:35:26.884Z,0
2017-08-06T01:36:27.199Z,0
2017-08-06T01:37:27.130Z,0
2017-08-06T01:38:27.113Z,0
2017-08-06T01:39:27.091Z,0
2017-08-06T01:40:27.073Z,0
2017-08-06T01:41:27.095Z,0
2017-08-06T01:42:27.043Z,0
2017-08-06T01:43:27.011Z,0
2017-08-06T01:44:26.875Z,0
2017-08-06T01:45:27.011Z,0
2017-08-06T01:46:26.935Z,0
2017-08-06T01:47:26.910Z,0
2017-08-06T01:48:26.291Z,0
2017-08-06T01:49:26.879Z,0
2017-08-06T01:50:26.904Z,0
2017-08-06T01:51:26.869Z,0
2017-08-06T01:52:26.810Z,0
2017-08-06T01:53:26.782Z,0
2017-08-06T01:54:26.763Z,0
2017-08-06T01:55:26.738Z,0
2017-08-06T01:56:26.717Z,0
2017-08-06T01:57:26.773Z,0
2017-08-06T01:58:26.366Z,0
2017-08-06T01:59:26.670Z,0
2017-08-06T02:00:26.632Z,0
2017-08-06T02:01:26.603Z,0
2017-08-06T02:02:26.295Z,0
2017-08-06T02:03:26.613Z,0
2017-08-06T02:04:26.533Z,0
2017-08-06T02:05:26.518Z,0
2017-08-06T02:06:26.508Z,0
2017-08-06T02:07:26.474Z,0
2017-08-06T02:08:26.160Z,0
2017-08-06T02:09:26.427Z,0
2017-08-06T02:10:26.409Z,0
2017-08-06T02:11:26.391Z,0
2017-08-06T02:12:26.571Z,0
2017-08-06T02:13:26.354Z,0
2017-08-06T02:14:26.325Z,0
2017-08-06T02:15:26.344Z,0
2017-08-06T02:16:26.280Z,0
2017-08-06T02:17:26.264Z,0
2017-08-06T02:18:26.230Z,0
2017-08-06T02:19:26.207Z,0
2017-08-06T02:20:26.195Z,0
2017-08-06T02:21:26.162Z,0
2017-08-06T02:22:26.139Z,0
2017-08-06T02:23:26.119Z,0
2017-08-06T02:24:25.805Z,0
2017-08-06T02:25:26.089Z,0
2017-08-06T02:26:26.060Z,0
2017-08-06T02:27:26.032Z,0
2017-08-06T02:28:26.012Z,0
2017-08-06T02:29:25.993Z,0
2017-08-06T02:30:25.982Z,0
2017-08-06T02:31:25.942Z,0
2017-08-06T02:32:25.919Z,0
2017-08-06T02:33:25.907Z,0
2017-08-06T02:34:25.882Z,0
2017-08-06T02:35:25.863Z,0
2017-08-06T02:36:25.838Z,0
2017-08-06T02:37:25.814Z,0
2017-08-06T02:38:25.790Z,0
2017-08-06T02:39:25.766Z,0
2017-08-06T02:40:25.777Z,0
2017-08-06T02:41:25.725Z,0
2017-08-06T02:42:25.706Z,0
2017-08-06T02:43:25.677Z,0
2017-08-06T02:44:25.654Z,0
2017-08-06T02:45:25.639Z,0
2017-08-06T02:46:25.863Z,0
2017-08-06T02:47:25.603Z,0
2017-08-06T02:48:25.569Z,0
2017-08-06T02:49:25.546Z,0
2017-08-06T02:50:25.527Z,0
2017-08-06T02:51:25.498Z,0
2017-08-06T02:52:25.533Z,0
2017-08-06T02:53:25.464Z,0
2017-08-06T02:54:25.186Z,0
2017-08-06T02:55:25.918Z,0
2017-08-06T02:56:25.390Z,0
2017-08-06T02:57:25.367Z,0
2017-08-06T02:58:25.352Z,0
2017-08-06T02:59:25.380Z,0
2017-08-06T03:00:25.310Z,0
2017-08-06T03:01:25.290Z,0
2017-08-06T03:02:25.258Z,0
2017-08-06T03:03:25.239Z,0
2017-08-06T03:04:25.218Z,0
2017-08-06T03:05:25.193Z,0
2017-08-06T03:06:25.169Z,0
2017-08-06T03:07:25.151Z,0
2017-08-06T03:08:25.119Z,0
2017-08-06T03:09:25.106Z,0
2017-08-06T03:10:25.092Z,0
2017-08-06T03:11:25.065Z,0
2017-08-06T03:12:25.038Z,0
2017-08-06T03:13:25.034Z,0
2017-08-06T03:14:24.982Z,0
2017-08-06T03:15:25.025Z,0
2017-08-06T03:16:24.957Z,0
2017-08-06T03:17:24.936Z,0
2017-08-06T03:18:24.905Z,4
2017-08-06T03:19:24.887Z,4
2017-08-06T03:20:25.076Z,0
2017-08-06T03:21:24.839Z,0
2017-08-06T03:22:24.825Z,4
2017-08-06T03:23:24.790Z,4
2017-08-06T03:24:24.773Z,4
2017-08-06T03:25:24.749Z,4
2017-08-06T03:26:24.767Z,8
2017-08-06T03:27:24.708Z,4
2017-08-06T03:28:24.695Z,4
2017-08-06T03:29:24.669Z,8
2017-08-06T03:30:24.645Z,12
2017-08-06T03:31:24.622Z,8
2017-08-06T03:32:24.596Z,12
2017-08-06T03:33:24.577Z,16
2017-08-06T03:34:24.258Z,16
2017-08-06T03:35:24.526Z,16
2017-08-06T03:36:24.514Z,20
2017-08-06T03:37:24.487Z,28
2017-08-06T03:38:24.519Z,28
2017-08-06T03:39:24.448Z,32
2017-08-06T03:40:24.425Z,40
2017-08-06T03:41:24.403Z,44
2017-08-06T03:42:24.574Z,48
2017-08-06T03:43:24.346Z,56
2017-08-06T03:44:24.328Z,60
2017-08-06T03:45:24.308Z,72
2017-08-06T03:46:24.295Z,76
2017-08-06T03:47:24.511Z,88
2017-08-06T03:48:24.459Z,96
2017-08-06T03:49:24.427Z,108
2017-08-06T03:50:24.202Z,120
2017-08-06T03:51:24.178Z,132
2017-08-06T03:52:24.154Z,148
2017-08-06T03:53:24.184Z,160
2017-08-06T03:54:23.813Z,180
2017-08-06T03:55:24.086Z,192
2017-08-06T03:56:24.061Z,212
2017-08-06T03:57:24.038Z,232
2017-08-06T03:58:24.068Z,256
2017-08-06T03:59:24.001Z,276
2017-08-06T04:00:24.024Z,296
2017-08-06T04:01:23.957Z,324
2017-08-06T04:02:23.631Z,348
2017-08-06T04:03:23.906Z,376
2017-08-06T04:04:23.886Z,404
2017-08-06T04:05:24.078Z,436
2017-08-06T04:06:23.916Z,468
2017-08-06T04:07:23.852Z,500
2017-08-06T04:08:23.851Z,532
2017-08-06T04:09:23.477Z,568
2017-08-06T04:10:23.458Z,604
2017-08-06T04:11:23.736Z,644
2017-08-06T04:12:23.709Z,684
2017-08-06T04:13:23.708Z,720
2017-08-06T04:14:23.669Z,768
2017-08-06T04:15:23.642Z,812
2017-08-06T04:16:23.620Z,856
2017-08-06T04:17:23.604Z,912
2017-08-06T04:18:23.272Z,968
2017-08-06T04:19:23.545Z,1040
2017-08-06T04:20:23.524Z,1128
2017-08-06T04:21:23.510Z,1224
2017-08-06T04:22:23.489Z,1368
2017-08-06T04:23:23.220Z,1592
2017-08-06T04:24:23.439Z,1820
2017-08-06T04:25:23.422Z,2000
2017-08-06T04:26:23.398Z,2132
2017-08-06T04:27:23.371Z,2248
2017-08-06T04:28:23.048Z,2388
2017-08-06T04:29:23.325Z,2548
2017-08-06T04:30:23.325Z,2696
2017-08-06T04:31:23.284Z,2840
2017-08-06T04:32:23.277Z,2988
2017-08-06T04:33:23.249Z,3148
2017-08-06T04:34:23.230Z,3312
2017-08-06T04:35:23.216Z,3464
2017-08-06T04:36:22.568Z,3600
2017-08-06T04:37:23.153Z,3756
2017-08-06T04:38:23.140Z,3920
2017-08-06T04:39:22.853Z,4112
2017-08-06T04:40:23.085Z,4296
2017-08-06T04:41:23.069Z,4424
2017-08-06T04:42:23.043Z,4592
2017-08-06T04:43:23.013Z,4792
2017-08-06T04:44:22.708Z,4932
2017-08-06T04:45:22.997Z,5084
2017-08-06T04:46:22.962Z,5256
2017-08-06T04:47:22.938Z,5396
2017-08-06T04:48:22.968Z,5568
2017-08-06T04:49:22.892Z,5764
2017-08-06T04:50:22.871Z,5920
2017-08-06T04:51:22.852Z,6068
2017-08-06T04:52:22.532Z,6212
2017-08-06T04:53:22.812Z,6272
2017-08-06T04:54:22.490Z,6372
2017-08-06T04:55:22.769Z,6480
2017-08-06T04:56:22.743Z,6696
2017-08-06T04:57:22.725Z,6892
2017-08-06T04:58:22.705Z,7076
2017-08-06T04:59:22.750Z,7172
2017-08-06T05:00:22.663Z,7420
2017-08-06T05:01:22.647Z,7604
2017-08-06T05:02:22.633Z,7772
2017-08-06T05:03:22.601Z,7964
2017-08-06T05:04:22.579Z,8180
2017-08-06T05:05:22.559Z,8248
2017-08-06T05:06:22.541Z,8324
2017-08-06T05:07:22.516Z,8544
2017-08-06T05:08:22.509Z,8708
2017-08-06T05:09:22.476Z,8860
2017-08-06T05:10:22.466Z,8952
2017-08-06T05:11:22.437Z,9084
2017-08-06T05:12:22.422Z,9280
2017-08-06T05:13:22.159Z,9384
2017-08-06T05:14:22.378Z,9552
2017-08-06T05:15:22.413Z,9724
2017-08-06T05:16:22.040Z,9916
2017-08-06T05:17:22.378Z,10020
2017-08-06T05:18:22.298Z,10184
2017-08-06T05:19:21.974Z,10312
2017-08-06T05:20:22.256Z,10424
2017-08-06T05:21:22.251Z,10616
2017-08-06T05:22:22.224Z,10656
2017-08-06T05:23:22.195Z,10844
2017-08-06T05:24:22.177Z,11000
2017-08-06T05:25:22.169Z,11192
2017-08-06T05:26:22.141Z,11248
2017-08-06T05:27:22.128Z,11464
2017-08-06T05:28:22.107Z,11612
2017-08-06T05:29:22.134Z,11748
2017-08-06T05:30:22.066Z,11868
2017-08-06T05:31:22.053Z,12020
2017-08-06T05:32:22.082Z,12196
2017-08-06T05:33:21.711Z,12296
2017-08-06T05:34:21.989Z,12412
2017-08-06T05:35:21.969Z,12560
2017-08-06T05:36:21.957Z,12596
2017-08-06T05:37:21.928Z,12740
2017-08-06T05:38:21.613Z,12820
2017-08-06T05:39:21.924Z,12832
2017-08-06T05:40:21.883Z,12948
2017-08-06T05:41:21.865Z,13204
2017-08-06T05:42:21.864Z,13256
2017-08-06T05:43:21.528Z,13304
2017-08-06T05:44:21.803Z,13512
2017-08-06T05:45:21.798Z,13584
2017-08-06T05:46:21.834Z,13780
2017-08-06T05:47:21.808Z,13944
2017-08-06T05:48:21.743Z,13992
2017-08-06T05:49:21.722Z,14336
2017-08-06T05:50:21.705Z,14496
2017-08-06T05:51:21.689Z,14752
2017-08-06T05:52:21.669Z,14880
2017-08-06T05:53:21.690Z,14848
2017-08-06T05:54:21.630Z,15296
2017-08-06T05:55:21.611Z,15296
2017-08-06T05:56:21.295Z,15648
2017-08-06T05:57:21.580Z,16000
2017-08-06T05:58:21.616Z,16320
2017-08-06T05:59:21.545Z,16416
2017-08-06T06:00:21.528Z,16672
2017-08-06T06:01:21.511Z,16960
2017-08-06T06:02:21.742Z,17248
2017-08-06T06:03:21.475Z,17504
2017-08-06T06:04:21.467Z,17536
2017-08-06T06:05:21.440Z,17856
2017-08-06T06:06:21.421Z,18080
2017-08-06T06:07:21.404Z,18144
2017-08-06T06:08:21.388Z,18464
2017-08-06T06:09:21.379Z,18656
2017-08-06T06:10:21.363Z,19360
2017-08-06T06:11:21.361Z,19776
2017-08-06T06:12:21.323Z,19872
2017-08-06T06:13:21.306Z,20064
2017-08-06T06:14:21.296Z,20384
2017-08-06T06:15:21.278Z,20832
2017-08-06T06:16:21.369Z,21408
2017-08-06T06:17:20.955Z,20960
2017-08-06T06:18:21.227Z,21696
2017-08-06T06:19:21.215Z,22560
2017-08-06T06:20:21.210Z,21536
2017-08-06T06:21:21.189Z,21856
2017-08-06T06:22:21.179Z,23424
2017-08-06T06:23:21.212Z,24128
2017-08-06T06:24:21.139Z,24288
2017-08-06T06:25:21.134Z,24544
2017-08-06T06:26:21.108Z,25216
2017-08-06T06:27:21.101Z,25664
2017-08-06T06:28:21.088Z,25632
2017-08-06T06:29:21.122Z,26688
2017-08-06T06:30:20.753Z,25184
2017-08-06T06:31:21.032Z,19040
2017-08-06T06:32:21.030Z,27200
2017-08-06T06:33:21.006Z,29056
2017-08-06T06:34:21.007Z,28672
2017-08-06T06:35:20.971Z,29312
2017-08-06T06:36:20.964Z,18144
2017-08-06T06:37:20.945Z,14908
2017-08-06T06:38:20.634Z,17280
2017-08-06T06:39:20.917Z,20928
2017-08-06T06:40:20.909Z,14736
2017-08-06T06:41:20.891Z,14340
2017-08-06T06:42:20.882Z,18784
2017-08-06T06:43:20.862Z,29056
2017-08-06T06:44:20.849Z,27840
2017-08-06T06:45:20.832Z,25504
2017-08-06T06:46:20.814Z,24000
2017-08-06T06:47:20.499Z,25376
2017-08-06T06:48:20.794Z,27360
2017-08-06T06:49:20.770Z,28672
2017-08-06T06:50:20.755Z,28448
2017-08-06T06:51:20.743Z,27904
2017-08-06T06:52:20.733Z,27456
2017-08-06T06:53:20.464Z,27264
2017-08-06T06:54:20.719Z,27616
2017-08-06T06:55:20.688Z,28832
2017-08-06T06:56:20.673Z,29856
2017-08-06T06:57:20.669Z,28992
2017-08-06T06:58:20.657Z,27904
2017-08-06T06:59:20.639Z,27968
2017-08-06T07:00:20.643Z,29120
2017-08-06T07:01:20.614Z,30048
2017-08-06T07:02:20.597Z,30112
2017-08-06T07:03:20.593Z,29408
2017-08-06T07:04:20.570Z,29696
2017-08-06T07:05:20.628Z,29792
2017-08-06T07:06:20.258Z,29312
2017-08-06T07:07:20.547Z,28672
2017-08-06T07:08:20.530Z,29920
2017-08-06T07:09:20.208Z,31136
2017-08-06T07:10:20.502Z,29760
2017-08-06T07:11:20.493Z,27104
2017-08-06T07:12:20.479Z,27424
2017-08-06T07:13:20.470Z,30656
2017-08-06T07:14:20.452Z,33664
2017-08-06T07:15:20.446Z,33344
2017-08-06T07:16:20.430Z,30112
2017-08-06T07:17:20.415Z,28768
2017-08-06T07:18:20.408Z,30848
2017-08-06T07:19:20.388Z,34368
2017-08-06T07:20:20.391Z,35680
2017-08-06T07:21:20.377Z,33632
2017-08-06T07:22:20.373Z,30944
2017-08-06T07:23:20.356Z,26208
2017-08-06T07:24:20.348Z,32160
2017-08-06T07:25:20.327Z,31328
2017-08-06T07:26:20.322Z,28672
2017-08-06T07:27:20.341Z,27008
2017-08-06T07:28:20.009Z,29216
2017-08-06T07:29:20.000Z,34976
2017-08-06T07:30:19.981Z,38048
2017-08-06T07:31:20.263Z,40352
2017-08-06T07:32:20.617Z,37888
2017-08-06T07:33:20.246Z,33440
2017-08-06T07:34:20.237Z,31776
2017-08-06T07:35:20.227Z,34592
2017-08-06T07:36:20.225Z,37440
2017-08-06T07:37:20.202Z,38144
2017-08-06T07:38:20.217Z,39872
2017-08-06T07:39:20.195Z,37248
2017-08-06T07:40:20.172Z,36608
2017-08-06T07:41:20.160Z,43680
2017-08-06T07:42:19.852Z,43264
2017-08-06T07:43:20.199Z,38880
2017-08-06T07:44:20.180Z,36096
2017-08-06T07:45:20.138Z,33600
2017-08-06T07:46:20.115Z,33952
2017-08-06T07:47:20.100Z,37632
2017-08-06T07:48:19.781Z,41664
2017-08-06T07:49:20.106Z,43040
2017-08-06T07:50:20.072Z,41888
2017-08-06T07:51:20.123Z,41568
2017-08-06T07:52:20.052Z,42528
2017-08-06T07:53:20.072Z,43680
2017-08-06T07:54:20.024Z,45056
2017-08-06T07:55:20.044Z,47008
2017-08-06T07:56:20.013Z,43456
2017-08-06T07:57:20.006Z,39296
2017-08-06T07:58:19.997Z,31520
2017-08-06T07:59:19.985Z,34624
2017-08-06T08:00:20.030Z,36192
2017-08-06T08:01:19.969Z,31968
2017-08-06T08:02:19.958Z,38720
2017-08-06T08:03:19.955Z,45152
2017-08-06T08:04:19.936Z,42944
2017-08-06T08:05:19.933Z,33120
2017-08-06T08:06:19.936Z,37504
2017-08-06T08:07:19.913Z,42496
2017-08-06T08:08:19.604Z,43168
2017-08-06T08:09:19.897Z,49408
2017-08-06T08:10:19.882Z,52992
2017-08-06T08:11:19.635Z,55392
2017-08-06T08:12:19.872Z,19296
2017-08-06T08:13:19.857Z,55712
2017-08-06T08:14:19.845Z,57184
2017-08-06T08:15:19.880Z,58944
2017-08-06T08:16:19.829Z,55840
2017-08-06T08:17:19.810Z,62560
2017-08-06T08:18:19.798Z,63808
2017-08-06T08:19:19.795Z,63776
2017-08-06T08:20:19.786Z,60128
2017-08-06T08:21:19.782Z,59008
2017-08-06T08:22:19.828Z,58176
2017-08-06T08:23:19.761Z,58176
2017-08-06T08:24:19.745Z,59936
2017-08-06T08:25:19.747Z,56480
2017-08-06T08:26:19.786Z,67872
2017-08-06T08:27:19.735Z,56128
2017-08-06T08:28:19.733Z,70720
2017-08-06T08:29:19.703Z,20704
2017-08-06T08:30:19.702Z,57504
2017-08-06T08:31:19.696Z,56864
2017-08-06T08:32:19.694Z,60000
2017-08-06T08:33:19.672Z,63648
2017-08-06T08:34:19.665Z,63040
2017-08-06T08:35:19.660Z,61152
2017-08-06T08:36:19.354Z,14352
2017-08-06T08:37:19.644Z,13588
2017-08-06T08:38:19.667Z,22496
2017-08-06T08:39:19.643Z,17024
2017-08-06T08:40:20.800Z,66048
2017-08-06T08:41:19.614Z,52128
2017-08-06T08:42:19.305Z,60384
2017-08-06T08:43:19.619Z,60832
2017-08-06T08:44:19.603Z,59456
2017-08-06T08:45:19.288Z,46368
2017-08-06T08:46:19.606Z,8832
2017-08-06T08:47:19.581Z,7212
2017-08-06T08:48:19.564Z,6348
2017-08-06T08:49:19.547Z,7532
2017-08-06T08:50:19.488Z,11764
2017-08-06T08:51:19.547Z,73248
2017-08-06T08:52:19.527Z,76736
2017-08-06T08:53:19.516Z,77728
2017-08-06T08:54:19.563Z,16928
2017-08-06T08:55:19.495Z,59552
2017-08-06T08:56:19.482Z,71328
2017-08-06T08:57:19.519Z,29216
2017-08-06T08:58:19.458Z,58592
2017-08-06T08:59:19.447Z,14668
2017-08-06T09:00:19.135Z,12076
2017-08-06T09:01:19.130Z,14168
2017-08-06T09:02:19.427Z,56064
2017-08-06T09:03:19.122Z,64224
2017-08-06T09:04:19.094Z,73152
2017-08-06T09:05:19.384Z,77280
2017-08-06T09:06:19.388Z,77888
2017-08-06T09:07:19.375Z,17536
2017-08-06T09:08:19.368Z,69312
2017-08-06T09:09:19.349Z,62624
2017-08-06T09:10:19.347Z,59648
2017-08-06T09:11:19.541Z,56832
2017-08-06T09:12:19.326Z,56512
2017-08-06T09:13:19.375Z,31616
2017-08-06T09:14:19.301Z,18816
2017-08-06T09:15:19.295Z,9424
2017-08-06T09:16:19.289Z,8460
2017-08-06T09:17:18.979Z,7800
2017-08-06T09:18:18.961Z,7848
2017-08-06T09:19:19.310Z,9600
2017-08-06T09:20:19.302Z,61280
2017-08-06T09:21:19.237Z,63840
2017-08-06T09:22:19.237Z,25984
2017-08-06T09:23:19.226Z,17312
2017-08-06T09:24:19.212Z,20128
2017-08-06T09:25:19.211Z,25504
2017-08-06T09:26:19.234Z,33024
2017-08-06T09:27:19.187Z,18752
2017-08-06T09:28:19.166Z,14928
2017-08-06T09:29:18.854Z,17728
2017-08-06T09:30:19.137Z,69856
2017-08-06T09:31:19.147Z,67488
2017-08-06T09:32:19.135Z,65632
2017-08-06T09:33:18.809Z,15124
2017-08-06T09:34:19.117Z,60640
2017-08-06T09:35:19.088Z,56064
2017-08-06T09:36:19.070Z,40768
2017-08-06T09:37:19.063Z,67168
2017-08-06T09:38:19.047Z,18560
2017-08-06T09:39:19.054Z,12064
2017-08-06T09:40:19.047Z,20928
2017-08-06T09:41:18.718Z,17152
2017-08-06T09:42:19.211Z,15296
2017-08-06T09:43:19.042Z,55584
2017-08-06T09:44:18.984Z,61184
2017-08-06T09:45:19.009Z,59584
2017-08-06T09:46:18.965Z,61632
2017-08-06T09:47:18.949Z,63968
2017-08-06T09:48:18.943Z,65632
2017-08-06T09:49:18.974Z,72864
2017-08-06T09:50:18.928Z,74144
2017-08-06T09:51:18.306Z,76192
2017-08-06T09:52:19.501Z,77824
2017-08-06T09:53:33.505Z,28832
2017-08-06T09:54:18.906Z,20896
2017-08-06T09:55:18.933Z,10188
2017-08-06T09:56:18.869Z,9736
2017-08-06T09:57:18.902Z,10352
2017-08-06T09:58:18.877Z,9892
2017-08-06T09:59:18.822Z,8400
2017-08-06T10:00:18.836Z,14788
2017-08-06T10:01:18.818Z,70624
2017-08-06T10:02:18.799Z,75232
2017-08-06T10:03:18.801Z,78816
2017-08-06T10:04:18.788Z,80288
2017-08-06T10:05:18.778Z,75840
2017-08-06T10:06:18.786Z,73440
2017-08-06T10:07:18.780Z,72096
2017-08-06T10:08:18.738Z,74080
2017-08-06T10:09:18.737Z,15524
2017-08-06T10:10:18.744Z,10432
2017-08-06T10:11:18.716Z,9164
2017-08-06T10:12:18.716Z,9952
2017-08-06T10:13:18.687Z,77824
2017-08-06T10:14:18.386Z,73376
2017-08-06T10:15:18.066Z,68544
2017-08-06T10:16:18.660Z,68096
2017-08-06T10:17:18.661Z,70944
2017-08-06T10:18:18.644Z,73152
2017-08-06T10:19:18.639Z,73408
2017-08-06T10:20:18.628Z,71488
2017-08-06T10:21:18.617Z,69120
2017-08-06T10:22:18.615Z,67104
2017-08-06T10:23:18.644Z,68128
2017-08-06T10:24:18.589Z,73120
2017-08-06T10:25:18.572Z,70816
2017-08-06T10:26:18.269Z,10864
2017-08-06T10:27:18.560Z,11212
2017-08-06T10:28:18.604Z,14636
2017-08-06T10:29:18.237Z,21664
2017-08-06T10:30:18.541Z,8124
2017-08-06T10:31:18.214Z,6832
2017-08-06T10:32:18.504Z,6772
2017-08-06T10:33:18.499Z,68672
2017-08-06T10:34:18.482Z,67680
2017-08-06T10:35:18.465Z,68736
2017-08-06T10:36:18.479Z,71680
2017-08-06T10:37:18.458Z,78944
2017-08-06T10:38:18.444Z,88448
2017-08-06T10:39:18.135Z,95200
2017-08-06T10:40:18.428Z,17768
2017-08-06T10:41:18.415Z,18432
2017-08-06T10:42:18.098Z,18336
2017-08-06T10:43:18.632Z,75328
2017-08-06T10:44:18.371Z,28704
2017-08-06T10:45:18.060Z,18464
2017-08-06T10:46:18.356Z,17024
2017-08-06T10:47:18.342Z,17472
2017-08-06T10:48:18.338Z,93568
2017-08-06T10:49:18.331Z,95648
2017-08-06T10:50:18.316Z,83424
2017-08-06T10:51:17.996Z,81472
2017-08-06T10:52:18.281Z,80864
2017-08-06T10:53:18.292Z,87616
2017-08-06T10:54:18.260Z,93184
2017-08-06T10:55:18.258Z,96416
2017-08-06T10:56:18.248Z,98016
2017-08-06T10:57:18.239Z,94496
2017-08-06T10:58:18.222Z,87776
2017-08-06T10:59:18.212Z,85184
2017-08-06T11:00:17.909Z,80416
2017-08-06T11:01:18.201Z,72480
2017-08-06T11:02:18.183Z,63488
2017-08-06T11:03:18.176Z,51488
2017-08-06T11:04:18.163Z,38432
2017-08-06T11:05:17.864Z,25952
2017-08-06T11:06:18.150Z,16424
2017-08-06T11:07:18.193Z,11672
2017-08-06T11:08:18.123Z,10484
2017-08-06T11:09:18.116Z,10088
2017-08-06T11:10:18.099Z,9636
2017-08-06T11:11:18.106Z,9544
2017-08-06T11:12:18.073Z,9840
2017-08-06T11:13:18.065Z,10248
2017-08-06T11:14:18.056Z,11012
2017-08-06T11:15:18.045Z,11076
2017-08-06T11:16:18.024Z,11044
2017-08-06T11:17:18.025Z,11328
2017-08-06T11:18:18.057Z,12380
2017-08-06T11:19:17.992Z,13112
2017-08-06T11:20:17.989Z,12756
2017-08-06T11:21:17.662Z,11336
2017-08-06T11:22:17.961Z,10536
2017-08-06T11:23:17.944Z,10508
2017-08-06T11:24:17.914Z,11624
2017-08-06T11:25:17.915Z,12928
2017-08-06T11:26:17.941Z,12992
2017-08-06T11:27:17.633Z,12484
2017-08-06T11:28:17.868Z,12064
2017-08-06T11:29:17.848Z,10844
2017-08-06T11:30:17.829Z,9884
2017-08-06T11:31:17.815Z,8836
2017-08-06T11:32:17.509Z,7928
2017-08-06T11:33:17.780Z,7452
2017-08-06T11:34:17.773Z,7552
2017-08-06T11:35:17.751Z,8640
2017-08-06T11:36:17.736Z,8968
2017-08-06T11:37:17.721Z,9108
2017-08-06T11:38:17.401Z,9724
2017-08-06T11:39:17.691Z,9544
2017-08-06T11:40:17.724Z,8492
2017-08-06T11:41:17.662Z,7620
2017-08-06T11:42:17.650Z,7336
2017-08-06T11:43:17.661Z,7716
2017-08-06T11:44:17.614Z,8468
2017-08-06T11:45:17.625Z,9392
2017-08-06T11:46:17.579Z,9452
2017-08-06T11:47:17.562Z,9436
2017-08-06T11:48:17.601Z,10660
2017-08-06T11:49:17.534Z,12076
2017-08-06T11:50:17.521Z,11292
2017-08-06T11:51:17.211Z,11236
2017-08-06T11:52:17.547Z,10996
2017-08-06T11:53:17.472Z,11748
2017-08-06T11:54:17.458Z,12860
2017-08-06T11:55:17.429Z,13468
2017-08-06T11:56:17.440Z,12912
2017-08-06T11:57:17.458Z,12104
2017-08-06T11:58:17.391Z,10412
2017-08-06T11:59:17.378Z,8948
2017-08-06T12:00:17.055Z,8592
2017-08-06T12:01:17.035Z,8840
2017-08-06T12:02:17.318Z,9280
2017-08-06T12:03:17.307Z,9448
2017-08-06T12:04:17.287Z,9492
2017-08-06T12:05:16.971Z,9576
2017-08-06T12:06:17.259Z,9608
2017-08-06T12:07:17.247Z,11404
2017-08-06T12:08:17.221Z,12288
2017-08-06T12:09:16.905Z,12320
2017-08-06T12:10:17.194Z,11896
2017-08-06T12:11:17.174Z,12608
2017-08-06T12:12:17.151Z,13248
2017-08-06T12:13:17.149Z,13620
2017-08-06T12:14:17.121Z,13336
2017-08-06T12:15:17.095Z,12648
2017-08-06T12:16:17.090Z,12780
2017-08-06T12:17:17.079Z,13760
2017-08-06T12:18:17.098Z,14864
2017-08-06T12:19:17.024Z,15700
2017-08-06T12:20:16.708Z,17216
2017-08-06T12:21:17.010Z,18048
2017-08-06T12:22:16.735Z,17728
2017-08-06T12:23:16.999Z,16332
2017-08-06T12:24:16.957Z,15164
2017-08-06T12:25:16.933Z,14304
2017-08-06T12:26:16.919Z,13908
2017-08-06T12:27:16.907Z,14944
2017-08-06T12:28:16.889Z,15216
2017-08-06T12:29:16.872Z,15708
2017-08-06T12:30:17.101Z,16416
2017-08-06T12:31:16.839Z,16260
2017-08-06T12:32:16.828Z,16640
2017-08-06T12:33:16.798Z,16992
2017-08-06T12:34:16.480Z,15356
2017-08-06T12:35:16.771Z,14532
2017-08-06T12:36:16.771Z,13860
2017-08-06T12:37:16.740Z,13444
2017-08-06T12:38:16.782Z,12468
2017-08-06T12:39:16.707Z,11672
2017-08-06T12:40:16.694Z,11288
2017-08-06T12:41:16.674Z,11620
2017-08-06T12:42:16.660Z,12920
2017-08-06T12:43:16.643Z,13868
2017-08-06T12:44:16.319Z,14132
2017-08-06T12:45:16.624Z,14032
2017-08-06T12:46:16.855Z,15000
2017-08-06T12:47:16.580Z,15624
2017-08-06T12:48:16.562Z,14148
2017-08-06T12:49:16.556Z,13132
2017-08-06T12:50:16.528Z,13016
2017-08-06T12:51:16.527Z,12588
2017-08-06T12:52:16.494Z,12396
2017-08-06T12:53:16.482Z,12868
2017-08-06T12:54:16.489Z,12880
2017-08-06T12:55:16.459Z,12376
2017-08-06T12:56:16.437Z,12348
2017-08-06T12:57:16.435Z,12076
2017-08-06T12:58:16.406Z,12152
2017-08-06T12:59:16.384Z,12224
2017-08-06T13:00:16.072Z,13084
2017-08-06T13:01:16.055Z,13752
2017-08-06T13:02:16.333Z,12552
2017-08-06T13:03:16.018Z,10804
2017-08-06T13:04:16.305Z,10284
2017-08-06T13:05:16.300Z,9512
2017-08-06T13:06:16.273Z,8168
2017-08-06T13:07:16.263Z,7192
2017-08-06T13:08:16.242Z,7108
2017-08-06T13:09:15.624Z,6696
2017-08-06T13:10:16.210Z,7124
2017-08-06T13:11:16.187Z,8200
2017-08-06T13:12:16.237Z,8908
2017-08-06T13:13:15.866Z,9820
2017-08-06T13:14:16.195Z,9320
2017-08-06T13:15:16.129Z,9852
2017-08-06T13:16:16.113Z,10552
2017-08-06T13:17:15.791Z,8932
2017-08-06T13:18:16.083Z,7208
2017-08-06T13:19:16.061Z,6108
2017-08-06T13:20:16.040Z,5960
2017-08-06T13:21:16.016Z,6392
2017-08-06T13:22:16.015Z,6728
2017-08-06T13:23:15.987Z,7408
2017-08-06T13:24:15.971Z,8524
2017-08-06T13:25:15.949Z,9676
2017-08-06T13:26:15.638Z,10248
2017-08-06T13:27:15.931Z,10100